createdAt,value
2018-12-13T00:00:01.511Z,6.95
2018-12-13T00:01:05.692Z,7.60
2018-12-13T00:02:10.248Z,7.92
2018-12-13T00:03:14.448Z,7.15
2018-12-13T00:04:18.505Z,7.58
2018-12-13T00:05:22.455Z,7.87
2018-12-13T00:06:26.392Z,8.25
2018-12-13T00:07:30.545Z,7.25
2018-12-13T00:08:34.701Z,8.20
2018-12-13T00:09:38.901Z,8.08
2018-12-13T00:10:42.892Z,8.00
2018-12-13T00:11:46.817Z,8.70
2018-12-13T00:15:31.831Z,6.62
2018-12-13T00:16:35.790Z,7.35
2018-12-13T00:20:15.268Z,5.95
2018-12-13T00:21:20.433Z,7.05
2018-12-13T00:22:24.472Z,7.50
2018-12-13T00:23:28.461Z,7.83
2018-12-13T00:24:32.409Z,7.37
2018-12-13T00:25:36.649Z,8.43
2018-12-13T00:26:40.896Z,7.20
2018-12-13T00:27:45.043Z,6.33
2018-12-13T00:28:48.989Z,6.67
2018-12-13T00:29:52.941Z,6.58
2018-12-13T00:30:57.049Z,7.12
2018-12-13T00:32:01.022Z,6.75
2018-12-13T00:33:04.981Z,6.37
2018-12-13T00:34:09.224Z,6.53
2018-12-13T00:35:13.293Z,6.75
2018-12-13T00:36:17.477Z,6.80
2018-12-13T00:37:21.401Z,7.15
2018-12-13T00:38:25.481Z,6.70
2018-12-13T00:39:29.573Z,6.83
2018-12-13T00:40:33.865Z,7.25
2018-12-13T00:41:37.956Z,7.12
2018-12-13T00:42:41.926Z,8.45
2018-12-13T00:43:45.857Z,8.08
2018-12-13T00:44:50.014Z,6.80
2018-12-13T00:45:54.217Z,7.33
2018-12-13T00:46:58.427Z,6.42
2018-12-13T00:48:02.400Z,5.78
2018-12-13T00:49:06.333Z,6.65
2018-12-13T00:50:10.538Z,6.70
2018-12-13T00:51:14.489Z,6.78
2018-12-13T00:52:18.694Z,5.67
2018-12-13T00:53:22.761Z,5.80
2018-12-13T00:54:26.704Z,6.20
2018-12-13T00:55:30.589Z,6.50
2018-12-13T00:56:34.657Z,6.53
2018-12-13T00:57:38.737Z,6.22
2018-12-13T00:58:42.825Z,6.17
2018-12-13T00:59:46.759Z,6.37
2018-12-13T01:00:51.004Z,6.35
2018-12-13T01:01:55.466Z,6.42
2018-12-13T01:02:59.424Z,6.28
2018-12-13T01:04:03.348Z,6.50
2018-12-13T01:05:07.742Z,6.47
2018-12-13T01:06:12.000Z,6.00
2018-12-13T01:07:16.021Z,6.22
2018-12-13T01:08:20.009Z,6.25
2018-12-13T01:09:23.993Z,6.62
2018-12-13T01:10:28.020Z,6.25
2018-12-13T01:11:32.151Z,6.75
2018-12-13T01:12:36.280Z,7.05
2018-12-13T01:13:40.217Z,6.55
2018-12-13T01:14:44.221Z,6.35
2018-12-13T01:15:48.361Z,6.42
2018-12-13T01:16:52.480Z,5.83
2018-12-13T01:17:56.553Z,5.62
2018-12-13T01:19:00.562Z,5.97
2018-12-13T01:20:04.748Z,5.85
2018-12-13T01:21:10.025Z,5.65
2018-12-13T01:22:14.073Z,5.35
2018-12-13T01:23:18.195Z,5.62
2018-12-13T01:24:22.190Z,6.17
2018-12-13T01:25:26.113Z,6.22
2018-12-13T01:26:30.202Z,5.92
2018-12-13T01:27:34.265Z,5.87
2018-12-13T01:28:38.497Z,5.30
2018-12-13T01:29:42.427Z,6.17
2018-12-13T01:30:46.456Z,5.55
2018-12-13T01:31:50.502Z,5.15
2018-12-13T01:32:54.605Z,5.95
2018-12-13T01:33:58.605Z,5.58
2018-12-13T01:35:02.724Z,5.62
2018-12-13T01:36:06.796Z,6.47
2018-12-13T01:37:10.851Z,5.62
2018-12-13T01:38:14.908Z,5.22
2018-12-13T01:39:18.901Z,5.75
2018-12-13T01:40:22.846Z,4.92
2018-12-13T01:41:26.905Z,4.50
2018-12-13T01:42:30.970Z,5.70
2018-12-13T01:43:35.163Z,5.45
2018-12-13T01:44:39.152Z,5.20
2018-12-13T01:45:43.227Z,4.92
2018-12-13T01:46:47.300Z,4.90
2018-12-13T01:47:51.453Z,4.33
2018-12-13T01:48:55.618Z,5.10
2018-12-13T01:49:59.657Z,5.80
2018-12-13T01:51:03.821Z,5.10
2018-12-13T01:52:07.838Z,5.10
2018-12-13T01:53:11.933Z,5.30
2018-12-13T01:54:16.057Z,5.37
2018-12-13T01:55:20.214Z,5.17
2018-12-13T01:56:24.374Z,5.30
2018-12-13T01:57:28.399Z,5.05
2018-12-13T01:58:32.482Z,4.67
2018-12-13T01:59:36.382Z,5.10
2018-12-13T02:00:40.496Z,5.53
2018-12-13T02:01:44.542Z,4.83
2018-12-13T02:02:48.571Z,4.47
2018-12-13T02:03:52.872Z,4.67
2018-12-13T02:04:57.814Z,4.75
2018-12-13T02:06:01.980Z,4.60
2018-12-13T02:07:06.082Z,5.12
2018-12-13T02:08:10.180Z,4.47
2018-12-13T02:09:14.470Z,4.90
2018-12-13T02:10:18.632Z,5.30
2018-12-13T02:11:22.661Z,5.10
2018-12-13T02:12:26.753Z,5.12
2018-12-13T02:13:30.726Z,6.05
2018-12-13T02:14:34.813Z,5.87
2018-12-13T02:15:38.924Z,5.75
2018-12-13T02:16:42.924Z,5.70
2018-12-13T02:17:46.855Z,5.28
2018-12-13T02:18:50.776Z,5.70
2018-12-13T02:19:54.912Z,5.50
2018-12-13T02:20:58.878Z,5.37
2018-12-13T02:22:02.985Z,5.80
2018-12-13T02:23:06.955Z,5.05
2018-12-13T02:24:10.946Z,4.45
2018-12-13T02:25:14.976Z,4.60
2018-12-13T02:26:19.015Z,4.58
2018-12-13T02:27:23.071Z,4.40
2018-12-13T02:28:27.000Z,4.97
2018-12-13T02:29:30.983Z,5.50
2018-12-13T02:30:34.908Z,5.22
2018-12-13T02:31:38.970Z,4.85
2018-12-13T02:32:43.069Z,5.22
2018-12-13T02:33:47.116Z,5.08
2018-12-13T02:34:51.201Z,5.70
2018-12-13T02:35:55.521Z,5.25
2018-12-13T02:37:05.734Z,4.87
2018-12-13T02:38:05.542Z,4.97
2018-12-13T02:39:09.585Z,4.95
2018-12-13T02:40:13.825Z,4.70
2018-12-13T02:41:17.869Z,5.50
2018-12-13T02:42:21.845Z,5.55
2018-12-13T02:43:26.072Z,5.45
2018-12-13T02:44:30.124Z,5.62
2018-12-13T02:45:34.213Z,5.47
2018-12-13T02:46:39.230Z,6.03
2018-12-13T02:47:43.294Z,5.60
2018-12-13T02:48:48.009Z,6.25
2018-12-13T02:49:51.997Z,6.85
2018-12-13T02:50:55.973Z,6.92
2018-12-13T02:51:59.938Z,5.92
2018-12-13T02:53:03.888Z,7.20
2018-12-13T02:54:07.929Z,6.70
2018-12-13T02:55:12.130Z,6.72
2018-12-13T02:56:16.310Z,6.87
2018-12-13T02:57:20.354Z,7.08
2018-12-13T02:58:24.565Z,6.92
2018-12-13T02:59:28.669Z,6.12
2018-12-13T03:00:32.624Z,5.83
2018-12-13T03:01:36.826Z,6.17
2018-12-13T03:02:40.893Z,6.72
2018-12-13T03:03:45.080Z,6.20
2018-12-13T03:04:49.110Z,6.37
2018-12-13T03:05:53.059Z,6.00
2018-12-13T03:06:57.112Z,5.00
2018-12-13T03:08:01.169Z,5.72
2018-12-13T03:09:07.508Z,5.33
2018-12-13T03:10:11.649Z,5.30
2018-12-13T03:11:15.562Z,5.40
2018-12-13T03:12:19.642Z,5.00
2018-12-13T03:13:23.660Z,4.62
2018-12-13T03:14:27.706Z,4.90
2018-12-13T03:15:31.784Z,5.12
2018-12-13T03:16:35.762Z,4.55
2018-12-13T03:17:39.722Z,4.90
2018-12-13T03:18:43.759Z,4.28
2018-12-13T03:19:47.728Z,5.22
2018-12-13T03:20:52.152Z,4.53
2018-12-13T03:21:56.092Z,4.80
2018-12-13T03:23:00.142Z,4.80
2018-12-13T03:24:04.298Z,4.60
2018-12-13T03:25:08.577Z,4.83
2018-12-13T03:26:12.585Z,5.78
2018-12-13T03:27:16.565Z,5.08
2018-12-13T03:28:20.516Z,5.58
2018-12-13T03:29:24.593Z,5.55
2018-12-13T03:30:28.537Z,5.40
2018-12-13T03:31:32.673Z,5.17
2018-12-13T03:32:36.762Z,4.45
2018-12-13T03:33:40.930Z,5.50
2018-12-13T03:34:44.898Z,5.50
2018-12-13T03:35:48.870Z,5.20
2018-12-13T03:36:52.949Z,4.75
2018-12-13T03:37:56.961Z,4.95
2018-12-13T03:39:01.035Z,5.55
2018-12-13T03:40:05.142Z,5.05
2018-12-13T03:41:09.077Z,4.75
2018-12-13T03:42:13.197Z,4.75
2018-12-13T03:43:17.306Z,4.28
2018-12-13T03:44:21.369Z,4.53
2018-12-13T03:45:25.273Z,4.62
2018-12-13T03:46:29.208Z,5.15
2018-12-13T03:47:33.261Z,4.65
2018-12-13T03:48:37.390Z,4.85
2018-12-13T03:49:41.497Z,4.58
2018-12-13T03:50:45.601Z,5.08
2018-12-13T03:51:49.656Z,5.47
2018-12-13T03:52:53.617Z,5.30
2018-12-13T03:53:57.682Z,4.83
2018-12-13T03:55:01.609Z,4.85
2018-12-13T03:56:05.661Z,4.78
2018-12-13T03:57:09.712Z,4.80
2018-12-13T03:58:13.674Z,5.22
2018-12-13T03:59:18.682Z,5.62
2018-12-13T04:00:22.814Z,5.55
2018-12-13T04:01:26.758Z,5.10
2018-12-13T04:02:30.842Z,4.90
2018-12-13T04:03:34.913Z,4.65
2018-12-13T04:04:39.003Z,4.80
2018-12-13T04:05:42.987Z,4.67
2018-12-13T04:06:46.956Z,4.60
2018-12-13T04:07:51.039Z,5.05
2018-12-13T04:08:55.105Z,5.30
2018-12-13T04:09:59.302Z,5.22
2018-12-13T04:11:03.414Z,5.47
2018-12-13T04:12:07.397Z,5.60
2018-12-13T04:13:11.536Z,5.50
2018-12-13T04:14:15.556Z,5.65
2018-12-13T04:15:19.658Z,6.12
2018-12-13T04:16:23.757Z,5.85
2018-12-13T04:17:27.732Z,5.03
2018-12-13T04:18:31.954Z,5.50
2018-12-13T04:19:36.067Z,5.10
2018-12-13T04:20:40.195Z,5.15
2018-12-13T04:21:44.259Z,5.15
2018-12-13T04:22:48.203Z,5.17
2018-12-13T04:23:52.193Z,5.65
2018-12-13T04:24:56.291Z,6.00
2018-12-13T04:26:00.346Z,5.33
2018-12-13T04:27:04.490Z,4.95
2018-12-13T04:28:08.421Z,5.20
2018-12-13T04:29:12.528Z,5.53
2018-12-13T04:30:16.456Z,5.37
2018-12-13T04:31:21.282Z,5.28
2018-12-13T04:32:25.380Z,5.72
2018-12-13T04:33:29.481Z,5.47
2018-12-13T04:34:33.685Z,5.40
2018-12-13T04:35:37.580Z,6.10
2018-12-13T04:36:41.520Z,5.90
2018-12-13T04:37:45.474Z,6.58
2018-12-13T04:38:49.531Z,6.28
2018-12-13T04:39:53.578Z,16.67
2018-12-13T04:40:57.693Z,32.75
2018-12-13T04:42:01.727Z,31.52
2018-12-13T04:43:05.809Z,19.00
2018-12-13T04:44:09.953Z,16.95
2018-12-13T04:45:13.968Z,13.22
2018-12-13T04:46:18.143Z,13.25
2018-12-13T04:47:22.209Z,14.75
2018-12-13T04:48:26.385Z,15.58
2018-12-13T04:49:30.379Z,14.13
2018-12-13T04:50:34.738Z,11.65
2018-12-13T04:51:39.153Z,16.95
2018-12-13T04:52:43.112Z,19.98
2018-12-13T04:53:47.241Z,25.60
2018-12-13T04:54:51.322Z,24.52
2018-12-13T04:55:55.309Z,22.50
2018-12-13T04:57:04.704Z,26.05
2018-12-13T04:58:08.919Z,22.98
2018-12-13T04:59:12.970Z,15.40
2018-12-13T05:00:17.229Z,12.18
2018-12-13T05:01:21.592Z,8.48
2018-12-13T05:02:25.669Z,7.92
2018-12-13T05:03:29.721Z,6.72
2018-12-13T05:04:33.696Z,10.10
2018-12-13T05:05:37.789Z,11.65
2018-12-13T05:06:41.833Z,12.43
2018-12-13T05:07:45.926Z,10.90
2018-12-13T05:08:50.197Z,9.30
2018-12-13T05:09:54.294Z,7.85
2018-12-13T05:10:58.468Z,7.50
2018-12-13T05:12:02.531Z,7.50
2018-12-13T05:13:06.525Z,7.97
2018-12-13T05:14:10.533Z,6.97
2018-12-13T05:15:14.580Z,6.25
2018-12-13T05:16:18.902Z,6.60
2018-12-13T05:17:23.622Z,6.30
2018-12-13T05:18:27.911Z,6.35
2018-12-13T05:19:33.071Z,7.70
2018-12-13T05:20:37.165Z,8.53
2018-12-13T05:21:41.285Z,5.37
2018-12-13T05:22:45.249Z,6.00
2018-12-13T05:23:49.260Z,6.80
2018-12-13T05:24:53.276Z,7.50
2018-12-13T05:25:57.498Z,5.28
2018-12-13T05:27:01.791Z,4.22
2018-12-13T05:28:06.089Z,4.25
2018-12-13T05:29:10.428Z,4.62
2018-12-13T05:30:15.376Z,4.67
2018-12-13T05:31:19.564Z,5.30
2018-12-13T05:32:23.636Z,5.60
2018-12-13T05:33:27.936Z,5.42
2018-12-13T05:34:32.505Z,5.55
2018-12-13T05:35:36.890Z,6.05
2018-12-13T05:36:40.875Z,6.47
2018-12-13T05:37:48.258Z,6.30
2018-12-13T05:38:55.821Z,6.35
2018-12-13T05:39:59.823Z,6.17
2018-12-13T05:41:03.892Z,6.20
2018-12-13T05:42:07.902Z,6.12
2018-12-13T05:43:12.085Z,5.75
2018-12-13T05:44:20.318Z,6.60
2018-12-13T05:45:24.670Z,6.50
2018-12-13T05:46:28.961Z,7.15
2018-12-13T05:47:33.232Z,8.60
2018-12-13T05:48:37.624Z,9.90
2018-12-13T05:49:41.855Z,11.30
2018-12-13T05:50:46.230Z,11.30
2018-12-13T05:51:50.407Z,11.28
2018-12-13T05:52:54.651Z,11.33
2018-12-13T05:53:58.841Z,11.53
2018-12-13T05:55:03.162Z,11.57
2018-12-13T05:56:07.596Z,11.05
2018-12-13T05:57:12.085Z,10.98
2018-12-13T05:58:16.277Z,11.12
2018-12-13T05:59:20.798Z,10.50
2018-12-13T06:00:25.333Z,9.55
2018-12-13T06:01:29.707Z,9.20
2018-12-13T06:02:33.894Z,9.20
2018-12-13T06:03:38.126Z,8.53
2018-12-13T06:04:42.276Z,7.72
2018-12-13T06:05:46.859Z,7.17
2018-12-13T06:06:51.183Z,6.42
2018-12-13T06:07:55.666Z,6.50
2018-12-13T06:09:00.157Z,7.00
2018-12-13T06:10:05.082Z,6.72
2018-12-13T06:11:09.231Z,6.35
2018-12-13T06:12:13.422Z,6.65
2018-12-13T06:13:17.757Z,6.40
2018-12-13T06:14:22.053Z,6.42
2018-12-13T06:15:26.274Z,6.60
2018-12-13T06:16:30.577Z,5.22
2018-12-13T06:17:34.726Z,5.55
2018-12-13T06:18:38.725Z,5.97
2018-12-13T06:19:42.986Z,5.90
2018-12-13T06:20:47.150Z,7.28
2018-12-13T06:21:52.190Z,7.33
2018-12-13T06:22:56.410Z,7.67
2018-12-13T06:24:00.458Z,7.05
2018-12-13T06:25:04.731Z,6.65
2018-12-13T06:26:08.922Z,6.80
2018-12-13T06:27:13.598Z,5.85
2018-12-13T06:28:18.592Z,6.85
2018-12-13T06:29:22.776Z,6.17
2018-12-13T06:30:27.027Z,5.53
2018-12-13T06:31:31.296Z,5.70
2018-12-13T06:32:35.582Z,6.30
2018-12-13T06:33:39.929Z,7.17
2018-12-13T06:34:44.122Z,6.78
2018-12-13T06:35:48.226Z,6.87
2018-12-13T06:36:52.513Z,6.60
2018-12-13T06:38:01.319Z,7.22
2018-12-13T06:39:03.538Z,7.97
2018-12-13T06:40:08.176Z,8.33
2018-12-13T06:41:12.348Z,8.75
2018-12-13T06:42:16.577Z,7.55
2018-12-13T06:43:21.008Z,8.65
2018-12-13T06:44:25.179Z,8.93
2018-12-13T06:45:29.407Z,9.33
2018-12-13T06:46:33.841Z,9.83
2018-12-13T06:47:38.265Z,8.58
2018-12-13T06:48:42.627Z,9.53
2018-12-13T06:49:46.922Z,8.90
2018-12-13T06:50:51.761Z,9.70
2018-12-13T06:51:56.079Z,9.40
2018-12-13T06:53:00.425Z,8.75
2018-12-13T06:54:04.498Z,8.75
2018-12-13T06:55:08.844Z,9.40
2018-12-13T06:56:13.054Z,8.90
2018-12-13T06:57:17.478Z,8.55
2018-12-13T06:58:21.731Z,9.13
2018-12-13T06:59:26.027Z,9.35
2018-12-13T07:00:30.314Z,9.45
2018-12-13T07:01:34.742Z,10.00
2018-12-13T07:02:38.801Z,9.55
2018-12-13T07:03:43.031Z,8.88
2018-12-13T07:04:47.384Z,9.85
2018-12-13T07:05:51.811Z,9.08
2018-12-13T07:06:56.119Z,7.97
2018-12-13T07:08:00.408Z,8.10
2018-12-13T07:09:06.772Z,7.60
2018-12-13T07:10:11.201Z,7.12
2018-12-13T07:11:16.625Z,7.90
2018-12-13T07:12:20.943Z,7.92
2018-12-13T07:13:25.331Z,6.60
2018-12-13T07:14:29.734Z,6.33
2018-12-13T07:15:34.038Z,6.55
2018-12-13T07:16:38.193Z,6.50
2018-12-13T07:17:47.432Z,6.35
2018-12-13T07:18:52.007Z,6.55
2018-12-13T07:19:56.183Z,6.35
2018-12-13T07:21:00.314Z,6.37
2018-12-13T07:22:04.764Z,6.95
2018-12-13T07:23:09.053Z,7.67
2018-12-13T07:24:13.312Z,6.80
2018-12-13T07:25:17.643Z,6.70
2018-12-13T07:26:21.849Z,6.70
2018-12-13T07:27:26.210Z,6.42
2018-12-13T07:28:30.524Z,5.50
2018-12-13T07:29:34.999Z,6.25
2018-12-13T07:30:39.493Z,6.55
2018-12-13T07:31:43.695Z,6.85
2018-12-13T07:32:48.967Z,6.05
2018-12-13T07:33:53.230Z,6.45
2018-12-13T07:35:01.278Z,7.10
2018-12-13T07:36:03.811Z,6.58
2018-12-13T07:37:08.074Z,6.97
2018-12-13T07:38:14.338Z,7.53
2018-12-13T07:39:18.663Z,6.25
2018-12-13T07:40:22.829Z,7.17
2018-12-13T07:41:27.147Z,7.00
2018-12-13T07:42:31.559Z,7.20
2018-12-13T07:43:35.979Z,7.08
2018-12-13T07:44:40.354Z,6.92
2018-12-13T07:45:44.430Z,7.75
2018-12-13T07:46:48.914Z,7.05
2018-12-13T07:47:53.256Z,7.30
2018-12-13T07:48:57.502Z,7.65
2018-12-13T07:50:01.845Z,7.75
2018-12-13T07:51:06.187Z,8.18
2018-12-13T07:52:10.860Z,8.40
2018-12-13T07:53:14.974Z,6.97
2018-12-13T07:54:19.374Z,7.30
2018-12-13T07:55:23.792Z,7.22
2018-12-13T07:56:29.266Z,7.03
2018-12-13T07:57:33.632Z,7.30
2018-12-13T07:58:37.753Z,7.25
2018-12-13T07:59:42.095Z,5.95
2018-12-13T08:00:46.678Z,6.45
2018-12-13T08:01:51.038Z,6.30
2018-12-13T08:02:55.342Z,5.90
2018-12-13T08:03:59.749Z,6.00
2018-12-13T08:05:04.984Z,6.30
2018-12-13T08:06:09.202Z,6.53
2018-12-13T08:07:13.611Z,7.55
2018-12-13T08:08:21.059Z,6.47
2018-12-13T08:09:24.349Z,7.37
2018-12-13T08:10:28.550Z,7.15
2018-12-13T08:11:32.585Z,5.65
2018-12-13T08:12:36.751Z,5.55
2018-12-13T08:13:41.279Z,5.20
2018-12-13T08:14:45.408Z,6.10
2018-12-13T08:15:49.724Z,7.40
2018-12-13T08:16:54.083Z,5.50
2018-12-13T08:17:58.446Z,5.75
2018-12-13T08:19:02.699Z,5.92
2018-12-13T08:20:07.316Z,6.37
2018-12-13T08:21:11.589Z,6.90
2018-12-13T08:22:15.937Z,6.80
2018-12-13T08:23:20.569Z,6.78
2018-12-13T08:24:24.867Z,6.60
2018-12-13T08:25:28.977Z,6.33
2018-12-13T08:26:33.264Z,5.83
2018-12-13T08:27:37.479Z,7.03
2018-12-13T08:28:41.753Z,7.55
2018-12-13T08:29:46.335Z,8.30
2018-12-13T08:30:50.944Z,8.25
2018-12-13T08:31:55.432Z,8.85
2018-12-13T08:32:59.977Z,7.47
2018-12-13T08:34:04.408Z,8.05
2018-12-13T08:35:09.236Z,8.05
2018-12-13T08:36:13.739Z,7.60
2018-12-13T08:37:17.806Z,6.75
2018-12-13T08:38:27.280Z,7.65
2018-12-13T08:39:28.427Z,6.60
2018-12-13T08:40:32.627Z,6.65
2018-12-13T08:41:36.873Z,7.05
2018-12-13T08:42:41.077Z,7.00
2018-12-13T08:43:45.293Z,8.25
2018-12-13T08:44:49.355Z,7.80
2018-12-13T08:45:54.392Z,6.95
2018-12-13T08:46:58.729Z,6.33
2018-12-13T08:48:06.974Z,6.90
2018-12-13T08:49:11.064Z,6.72
2018-12-13T08:50:15.341Z,7.42
2018-12-13T08:51:19.406Z,9.45
2018-12-13T08:52:23.712Z,10.00
2018-12-13T08:53:27.877Z,9.48
2018-12-13T08:54:32.084Z,8.20
2018-12-13T08:55:36.377Z,8.13
2018-12-13T08:56:40.558Z,13.03
2018-12-13T08:57:44.889Z,11.65
2018-12-13T08:58:49.213Z,15.95
2018-12-13T08:59:53.332Z,8.80
2018-12-13T09:00:57.741Z,6.55
2018-12-13T09:02:02.013Z,8.30
2018-12-13T09:03:06.247Z,14.75
2018-12-13T09:04:10.715Z,14.45
2018-12-13T09:05:15.179Z,15.45
2018-12-13T09:06:19.427Z,20.95
2018-12-13T09:07:23.882Z,13.55
2018-12-13T09:08:33.581Z,10.63
2018-12-13T09:09:34.775Z,8.98
2018-12-13T09:10:39.199Z,14.18
2018-12-13T09:11:43.318Z,14.35
2018-12-13T09:12:47.683Z,11.65
2018-12-13T09:13:52.115Z,13.38
2018-12-13T09:14:56.499Z,13.50
2018-12-13T09:16:00.833Z,13.08
2018-12-13T09:17:05.099Z,14.25
2018-12-13T09:18:09.429Z,13.78
2018-12-13T09:19:13.619Z,15.48
2018-12-13T09:20:17.721Z,15.65
2018-12-13T09:21:22.296Z,16.50
2018-12-13T09:22:26.450Z,16.80
2018-12-13T09:23:30.789Z,18.45
2018-12-13T09:24:34.958Z,17.85
2018-12-13T09:25:39.195Z,17.00
2018-12-13T09:26:43.883Z,15.90
2018-12-13T09:27:48.367Z,15.58
2018-12-13T09:28:52.765Z,15.90
2018-12-13T09:29:56.991Z,15.85
2018-12-13T09:31:01.258Z,14.33
2018-12-13T09:32:05.804Z,13.98
2018-12-13T09:33:10.101Z,15.00
2018-12-13T09:34:14.538Z,14.00
2018-12-13T09:35:18.882Z,14.85
2018-12-13T09:36:23.290Z,14.13
2018-12-13T09:37:27.858Z,15.40
2018-12-13T09:38:32.051Z,15.03
2018-12-13T09:39:36.330Z,15.40
2018-12-13T09:40:40.522Z,17.55
2018-12-13T09:41:45.048Z,15.38
2018-12-13T09:42:49.370Z,16.30
2018-12-13T09:43:53.579Z,15.85
2018-12-13T09:44:57.884Z,16.37
2018-12-13T09:46:02.313Z,16.20
2018-12-13T09:47:06.659Z,16.97
2018-12-13T09:48:11.183Z,16.75
2018-12-13T09:49:15.457Z,15.72
2018-12-13T09:50:19.882Z,17.50
2018-12-13T09:51:24.108Z,16.95
2018-12-13T09:52:28.588Z,15.48
2018-12-13T09:53:32.803Z,15.35
2018-12-13T09:54:37.084Z,14.78
2018-12-13T09:55:41.357Z,14.05
2018-12-13T09:56:45.853Z,13.90
2018-12-13T09:57:50.466Z,11.93
2018-12-13T09:58:54.678Z,12.50
2018-12-13T09:59:59.105Z,13.13
2018-12-13T10:01:03.458Z,12.70
2018-12-13T10:02:08.033Z,12.05
2018-12-13T10:03:12.350Z,12.30
2018-12-13T10:04:16.697Z,11.50
2018-12-13T10:05:21.027Z,12.63
2018-12-13T10:06:25.341Z,12.03
2018-12-13T10:07:29.771Z,13.18
2018-12-13T10:08:34.321Z,13.22
2018-12-13T10:09:38.747Z,13.88
2018-12-13T10:10:42.886Z,13.55
2018-12-13T10:11:47.113Z,13.13
2018-12-13T10:12:51.546Z,12.35
2018-12-13T10:13:55.824Z,12.35
2018-12-13T10:15:00.137Z,12.13
2018-12-13T10:16:04.411Z,13.00
2018-12-13T10:17:08.744Z,13.65
2018-12-13T10:18:13.003Z,12.05
2018-12-13T10:19:17.261Z,12.30
2018-12-13T10:20:21.573Z,13.25
2018-12-13T10:21:25.701Z,13.30
2018-12-13T10:22:29.890Z,12.93
2018-12-13T10:23:34.237Z,12.15
2018-12-13T10:24:38.786Z,12.75
2018-12-13T10:25:43.050Z,12.05
2018-12-13T10:26:47.097Z,11.90
2018-12-13T10:27:51.418Z,12.07
2018-12-13T10:28:55.768Z,11.95
2018-12-13T10:30:00.151Z,11.10
2018-12-13T10:31:04.418Z,10.65
2018-12-13T10:32:08.697Z,10.98
2018-12-13T10:33:12.911Z,10.82
2018-12-13T10:34:17.301Z,11.25
2018-12-13T10:35:21.747Z,11.10
2018-12-13T10:36:25.961Z,11.57
2018-12-13T10:37:30.191Z,10.88
2018-12-13T10:38:34.506Z,10.20
2018-12-13T10:39:39.388Z,10.75
2018-12-13T10:40:43.813Z,10.35
2018-12-13T10:41:48.185Z,11.15
2018-12-13T10:42:52.502Z,11.00
2018-12-13T10:43:56.902Z,11.63
2018-12-13T10:45:01.194Z,11.48
2018-12-13T10:46:05.569Z,10.70
2018-12-13T10:47:09.988Z,10.93
2018-12-13T10:48:14.328Z,10.93
2018-12-13T10:49:18.610Z,13.62
2018-12-13T10:50:23.092Z,13.80
2018-12-13T10:51:27.319Z,13.70
2018-12-13T10:52:31.676Z,11.95
2018-12-13T10:53:36.042Z,11.30
2018-12-13T10:54:40.266Z,12.13
2018-12-13T10:55:44.543Z,10.70
2018-12-13T10:56:49.062Z,11.93
2018-12-13T10:57:53.432Z,13.03
2018-12-13T10:58:57.944Z,13.83
2018-12-13T11:00:02.183Z,14.83
2018-12-13T11:01:11.713Z,14.20
2018-12-13T11:02:21.475Z,16.15
2018-12-13T11:03:30.757Z,14.78
2018-12-13T11:04:35.180Z,14.43
2018-12-13T11:05:45.911Z,14.23
2018-12-13T11:06:50.325Z,14.53
2018-12-13T11:07:54.797Z,13.60
2018-12-13T11:08:59.582Z,13.83
2018-12-13T11:10:04.497Z,12.70
2018-12-13T11:11:08.980Z,14.47
2018-12-13T11:12:13.326Z,15.72
2018-12-13T11:13:17.487Z,16.87
2018-12-13T11:14:21.853Z,17.65
2018-12-13T11:15:26.173Z,15.70
2018-12-13T11:16:30.700Z,13.30
2018-12-13T11:17:34.890Z,14.53
2018-12-13T11:18:39.192Z,12.93
2018-12-13T11:19:43.537Z,12.93
2018-12-13T11:20:47.962Z,12.43
2018-12-13T11:21:52.177Z,13.10
2018-12-13T11:22:56.447Z,11.95
2018-12-13T11:24:00.805Z,11.73
2018-12-13T11:25:05.272Z,12.18
2018-12-13T11:26:09.785Z,11.65
2018-12-13T11:27:24.682Z,12.03
2018-12-13T11:28:43.704Z,12.10
2018-12-13T11:30:28.505Z,10.48
2018-12-13T11:31:32.841Z,11.08
2018-12-13T11:32:37.242Z,11.70
2018-12-13T11:33:41.737Z,11.53
2018-12-13T11:34:46.093Z,11.28
2018-12-13T11:35:50.242Z,14.87
2018-12-13T11:36:54.596Z,12.03
2018-12-13T11:37:59.037Z,11.88
2018-12-13T11:39:05.906Z,11.55
2018-12-13T11:40:12.143Z,11.50
2018-12-13T11:41:16.348Z,11.63
2018-12-13T11:42:20.914Z,12.18
2018-12-13T11:43:25.737Z,12.65
2018-12-13T11:44:30.079Z,11.22
2018-12-13T11:45:34.582Z,12.28
2018-12-13T11:46:38.747Z,11.38
2018-12-13T11:47:43.175Z,12.68
2018-12-13T11:48:47.436Z,12.18
2018-12-13T11:49:51.751Z,11.60
2018-12-13T11:50:56.190Z,14.50
2018-12-13T11:52:00.586Z,14.95
2018-12-13T11:53:04.801Z,14.03
2018-12-13T11:54:20.975Z,15.18
2018-12-13T11:55:41.365Z,12.93
2018-12-13T11:56:46.579Z,13.93
2018-12-13T11:57:51.101Z,12.82
2018-12-13T11:58:55.358Z,13.62
2018-12-13T11:59:59.622Z,13.08
2018-12-13T12:01:03.923Z,11.83
2018-12-13T12:02:08.512Z,12.07
2018-12-13T12:03:12.738Z,13.03
2018-12-13T12:04:16.970Z,13.18
2018-12-13T12:05:21.431Z,13.45
2018-12-13T12:06:25.877Z,12.70
2018-12-13T12:07:30.198Z,13.78
2018-12-13T12:08:34.426Z,15.30
2018-12-13T12:09:38.656Z,14.90
2018-12-13T12:10:42.899Z,15.20
2018-12-13T12:11:47.134Z,14.20
2018-12-13T12:12:51.327Z,15.23
2018-12-13T12:13:55.551Z,14.25
2018-12-13T12:14:59.989Z,14.50
2018-12-13T12:16:04.518Z,12.40
2018-12-13T12:17:08.984Z,13.53
2018-12-13T12:18:13.276Z,13.98
2018-12-13T12:19:17.569Z,16.10
2018-12-13T12:20:22.072Z,15.68
2018-12-13T12:21:26.383Z,15.10
2018-12-13T12:22:30.809Z,16.62
2018-12-13T12:23:35.182Z,15.53
2018-12-13T12:24:39.585Z,15.15
2018-12-13T12:25:43.794Z,12.30
2018-12-13T12:26:48.278Z,12.25
2018-12-13T12:27:53.755Z,12.40
2018-12-13T12:28:58.149Z,10.95
2018-12-13T12:30:02.521Z,11.12
2018-12-13T12:31:07.042Z,11.57
2018-12-13T12:32:11.311Z,10.48
2018-12-13T12:33:15.574Z,9.20
2018-12-13T12:34:19.815Z,9.60
2018-12-13T12:35:24.393Z,8.98
2018-12-13T12:36:28.644Z,10.43
2018-12-13T12:37:32.810Z,10.43
2018-12-13T12:38:37.077Z,10.58
2018-12-13T12:39:41.468Z,11.40
2018-12-13T12:40:45.661Z,11.15
2018-12-13T12:41:49.951Z,12.13
2018-12-13T12:42:54.092Z,11.35
2018-12-13T12:43:58.284Z,13.58
2018-12-13T12:45:02.557Z,12.50
2018-12-13T12:46:07.071Z,12.45
2018-12-13T12:47:11.700Z,13.13
2018-12-13T12:48:15.947Z,13.40
2018-12-13T12:49:20.045Z,12.68
2018-12-13T12:50:24.328Z,13.95
2018-12-13T12:51:29.600Z,13.75
2018-12-13T12:52:34.059Z,13.85
2018-12-13T12:53:38.262Z,12.58
2018-12-13T12:54:42.444Z,12.80
2018-12-13T12:55:46.685Z,13.30
2018-12-13T12:56:50.988Z,13.05
2018-12-13T12:57:55.194Z,12.65
2018-12-13T12:58:59.490Z,13.18
2018-12-13T13:00:04.127Z,13.62
2018-12-13T13:01:08.385Z,15.48
2018-12-13T13:02:12.647Z,15.70
2018-12-13T13:03:16.819Z,14.58
2018-12-13T13:04:21.073Z,14.23
2018-12-13T13:05:25.338Z,14.05
2018-12-13T13:06:29.589Z,15.48
2018-12-13T13:07:34.000Z,15.93
2018-12-13T13:08:38.486Z,14.68
2018-12-13T13:09:42.878Z,12.93
2018-12-13T13:10:47.175Z,11.88
2018-12-13T13:11:51.522Z,11.78
2018-12-13T13:12:55.736Z,11.80
2018-12-13T13:13:59.941Z,12.68
2018-12-13T13:15:04.372Z,11.73
2018-12-13T13:16:08.821Z,11.97
2018-12-13T13:17:13.228Z,12.00
2018-12-13T13:18:17.461Z,13.70
2018-12-13T13:19:21.735Z,12.40
2018-12-13T13:20:26.165Z,12.68
2018-12-13T13:21:30.507Z,12.63
2018-12-13T13:22:34.996Z,12.47
2018-12-13T13:23:39.197Z,11.60
2018-12-13T13:24:43.433Z,12.13
2018-12-13T13:25:47.845Z,12.05
2018-12-13T13:26:52.264Z,13.38
2018-12-13T13:27:56.699Z,14.47
2018-12-13T13:29:01.025Z,15.63
2018-12-13T13:30:08.871Z,14.20
2018-12-13T13:31:13.121Z,14.35
2018-12-13T13:32:17.181Z,14.90
2018-12-13T13:33:21.286Z,15.68
2018-12-13T13:34:25.565Z,14.33
2018-12-13T13:35:29.953Z,15.72
2018-12-13T13:36:34.124Z,14.58
2018-12-13T13:37:38.718Z,17.50
2018-12-13T13:38:43.078Z,14.78
2018-12-13T13:39:47.456Z,14.70
2018-12-13T13:40:51.689Z,16.50
2018-12-13T13:41:55.910Z,21.23
2018-12-13T13:43:00.234Z,17.65
2018-12-13T13:44:04.721Z,15.95
2018-12-13T13:45:09.012Z,14.68
2018-12-13T13:46:13.146Z,15.98
2018-12-13T13:47:17.373Z,16.37
2018-12-13T13:48:21.528Z,15.10
2018-12-13T13:49:25.862Z,13.75
2018-12-13T13:50:30.241Z,12.10
2018-12-13T13:51:34.795Z,9.63
2018-12-13T13:52:38.952Z,12.40
2018-12-13T13:53:43.346Z,10.98
2018-12-13T13:54:47.421Z,12.13
2018-12-13T13:55:51.903Z,13.13
2018-12-13T13:56:57.401Z,14.10
2018-12-13T13:58:01.813Z,14.33
2018-12-13T13:59:06.203Z,14.45
2018-12-13T14:00:10.810Z,13.08
2018-12-13T14:01:15.050Z,15.43
2018-12-13T14:02:19.384Z,14.15
2018-12-13T14:03:23.693Z,15.98
2018-12-13T14:04:27.922Z,16.23
2018-12-13T14:05:32.280Z,17.67
2018-12-13T14:06:36.575Z,19.17
2018-12-13T14:07:40.934Z,23.75
2018-12-13T14:08:45.347Z,23.05
2018-12-13T14:09:49.520Z,21.17
2018-12-13T14:10:53.807Z,18.75